Flight Track Log - Related Links

Times and Time Zones

All times are in EDT time to prevent confusion due to time zone crossing. See the PDT4170 flight status page for this flight to view local times or setup timezone preferences in your user account.

Time Position Orientation Groundspeed Altitude Reporting Facility
EDT Latitude Longitude Course Direction KTS MPH feet Rate Location/Type
Sat 02:49:08 PM 36.4150 -82.4519 158° South 142 163 4,500  Level Atlanta Center
Sat 02:50:00 PM 36.3656 -82.2780 99° East  Level Estimated
Sat 02:50:08 PM 36.3753 -82.4322 158° South 153 176 5,700  Level Atlanta Center
Sat 02:51:00 PM 36.3290 -82.2349 90° East  Level Estimated
Sat 02:51:08 PM 36.3331 -82.4100 157° South 158 182 7,000  Level Atlanta Center
Sat 02:52:00 PM 36.2924 -82.1919 158° South  Level Estimated
Sat 02:52:08 PM 36.2972 -82.3694 138° Southeast 168 193 8,400  Level Atlanta Center
Sat 02:53:00 PM 36.3250 -82.1442 50° Northeast  Level FlightAware Approximate
Sat 02:53:08 PM 36.2592 -82.3317 141° Southeast 174 200 9,600  Level Atlanta Center
Sat 02:54:00 PM 36.2873 -82.1028 158° South  Level Estimated
Sat 02:54:08 PM 36.2231 -82.2911 138° Southeast 179 206 10,300  Level Atlanta Center
Sat 02:55:08 PM 36.1828 -82.2483 139° Southeast 189 217 11,000 350 Climbing Atlanta Center
Sat 02:56:08 PM 36.1406 -82.2003 137° Southeast 194 223 11,000  Level Atlanta Center
Sat 02:57:08 PM 36.0917 -82.1475 139° Southeast 219 252 11,000  Level Atlanta Center
Sat 02:58:08 PM 36.0450 -82.0897 135° Southeast 234 269 11,000  Level Atlanta Center
Sat 02:59:08 PM 35.9958 -82.0292 135° Southeast 239 275 11,000  Level Atlanta Center
Sat 03:00:08 PM 35.9469 -81.9739 138° Southeast 239 275 11,000  Level Atlanta Center
Sat 03:01:08 PM 35.8961 -81.9189 139° Southeast 239 275 11,000 -50 Level Atlanta Center
Sat 03:02:08 PM 35.8428 -81.8561 136° Southeast 239 275 10,900 -550 Descending Atlanta Center
Sat 03:03:08 PM 35.7917 -81.7986 138° Southeast 239 275 9,900 -950 Descending Atlanta Center
Sat 03:04:08 PM 35.7406 -81.7439 139° Southeast 244 281 9,000 -450 Descending Atlanta Center
Sat 03:05:08 PM 35.6958 -81.6914 136° Southeast 239 275 9,000  Level Atlanta Center
Sat 03:05:30 PM 35.6786 -81.6714 137° Southeast 219 252 9,000  Level Atlanta Center
Sat 03:06:08 PM 35.6489 -81.6389 138° Southeast 232 267 9,000  Level Atlanta Center
Sat 03:06:31 PM 35.6278 -81.6192 143° Southeast 223 257 9,000  Level Atlanta Center
Sat 03:07:08 PM 35.6019 -81.5894 137° Southeast 232 267 9,000  Level Atlanta Center
Sat 03:07:32 PM 35.5828 -81.5644 133° Southeast 226 260 9,000  Level Atlanta Center
Sat 03:08:08 PM 35.5633 -81.5267 122° Southeast 222 255 9,000 -269 Level Atlanta Center
Sat 03:08:39 PM 35.5542 -81.4939 109° East 232 267 8,700 -800 Descending Atlanta Center
Sat 03:09:08 PM 35.5575 -81.4528 84° East 222 255 8,200 -1,065 Descending Atlanta Center
Sat 03:09:41 PM 35.5628 -81.4067 82° East 232 267 7,600 -1,000 Descending Atlanta Center
Sat 03:10:08 PM 35.5661 -81.3708 83° East 226 260 7,200 -590 Descending Atlanta Center
Sat 03:10:42 PM 35.5694 -81.3272 85° East 232 267 7,000 -200 Descending Atlanta Center
Sat 03:11:08 PM 35.5686 -81.2967 92° East 226 260 7,000  Level Atlanta Center
Sat 03:11:37 PM 35.5636 -81.2611 100° East 218 251 7,000  Level Atlanta Center
Sat 03:12:08 PM 35.5544 -81.2231 106° East 221 254 7,000  Level Atlanta Center
Sat 03:12:38 PM 35.5494 -81.1875 100° East 216 249 7,000 -600 Level Atlanta Center
Sat 03:13:08 PM 35.5403 -81.1469 106° East 221 254 6,400 -1,258 Descending Atlanta Center
Sat 03:13:40 PM 35.5353 -81.1142 101° East 221 254 5,700 -1,500 Descending Atlanta Center
Sat 03:14:40 PM 35.5025 -81.0489 122° Southeast 215 247 4,100 -879 Descending Atlanta Center
Sat 03:15:36 PM 35.4681 -81.0069 135° Southeast 194 223 4,000 -49 Descending Atlanta Center
Sat 03:16:42 PM 35.4133 -80.9858 163° South 198 228 4,000 -331 Level Atlanta Center
Sat 03:17:43 PM 35.3569 -80.9831 178° South 203 234 3,300 -689 Descending Atlanta Center

Login

Don't have an account? Register now (free) for customized features, flight alerts, and more!